sensor_id;sensor_type;location;lat;lon;timestamp;P1;durP1;ratioP1;P2;durP2;ratioP2
24873;SDS011;12945;42.648;23.370;2023-04-15T00:02:17;7.22;;;2.58;;
24873;SDS011;12945;42.648;23.370;2023-04-15T00:04:45;6.90;;;2.50;;
24873;SDS011;12945;42.648;23.370;2023-04-15T00:07:11;7.57;;;2.80;;
24873;SDS011;12945;42.648;23.370;2023-04-15T00:09:36;5.13;;;2.53;;
24873;SDS011;12945;42.648;23.370;2023-04-15T00:12:02;5.35;;;2.67;;
24873;SDS011;12945;42.648;23.370;2023-04-15T00:14:27;4.88;;;2.67;;
24873;SDS011;12945;42.648;23.370;2023-04-15T00:16:52;5.57;;;2.95;;
24873;SDS011;12945;42.648;23.370;2023-04-15T00:19:20;8.77;;;3.67;;
24873;SDS011;12945;42.648;23.370;2023-04-15T00:21:45;11.73;;;3.65;;
24873;SDS011;12945;42.648;23.370;2023-04-15T00:24:11;8.48;;;3.92;;
24873;SDS011;12945;42.648;23.370;2023-04-15T00:26:37;9.52;;;4.05;;
24873;SDS011;12945;42.648;23.370;2023-04-15T00:29:02;8.35;;;3.85;;
24873;SDS011;12945;42.648;23.370;2023-04-15T00:31:28;10.23;;;4.18;;
24873;SDS011;12945;42.648;23.370;2023-04-15T00:33:54;8.60;;;4.03;;
24873;SDS011;12945;42.648;23.370;2023-04-15T00:36:19;7.35;;;3.78;;
24873;SDS011;12945;42.648;23.370;2023-04-15T00:38:44;6.85;;;3.90;;
24873;SDS011;12945;42.648;23.370;2023-04-15T00:41:09;7.93;;;4.18;;
24873;SDS011;12945;42.648;23.370;2023-04-15T00:43:35;10.13;;;4.25;;
24873;SDS011;12945;42.648;23.370;2023-04-15T00:46:00;12.23;;;4.70;;
24873;SDS011;12945;42.648;23.370;2023-04-15T00:48:27;10.65;;;4.35;;
24873;SDS011;12945;42.648;23.370;2023-04-15T00:50:53;7.95;;;4.53;;
24873;SDS011;12945;42.648;23.370;2023-04-15T00:53:18;12.45;;;4.78;;
24873;SDS011;12945;42.648;23.370;2023-04-15T00:55:43;9.75;;;4.65;;
24873;SDS011;12945;42.648;23.370;2023-04-15T00:58:09;8.98;;;4.88;;
24873;SDS011;12945;42.648;23.370;2023-04-15T01:00:34;12.90;;;5.55;;
24873;SDS011;12945;42.648;23.370;2023-04-15T01:03:00;11.18;;;4.93;;
24873;SDS011;12945;42.648;23.370;2023-04-15T01:05:25;10.25;;;5.43;;
24873;SDS011;12945;42.648;23.370;2023-04-15T01:07:51;11.13;;;5.70;;
24873;SDS011;12945;42.648;23.370;2023-04-15T01:10:17;11.98;;;5.45;;
24873;SDS011;12945;42.648;23.370;2023-04-15T01:12:42;16.02;;;5.78;;
24873;SDS011;12945;42.648;23.370;2023-04-15T01:15:08;12.15;;;5.40;;
24873;SDS011;12945;42.648;23.370;2023-04-15T01:17:35;10.88;;;5.22;;
24873;SDS011;12945;42.648;23.370;2023-04-15T01:20:00;7.78;;;4.47;;
24873;SDS011;12945;42.648;23.370;2023-04-15T01:22:26;10.48;;;4.50;;
24873;SDS011;12945;42.648;23.370;2023-04-15T01:24:58;9.32;;;4.35;;
24873;SDS011;12945;42.648;23.370;2023-04-15T01:27:26;8.82;;;3.90;;
24873;SDS011;12945;42.648;23.370;2023-04-15T01:29:51;8.05;;;4.18;;
24873;SDS011;12945;42.648;23.370;2023-04-15T01:32:17;9.43;;;3.97;;
24873;SDS011;12945;42.648;23.370;2023-04-15T01:34:42;8.65;;;3.60;;
24873;SDS011;12945;42.648;23.370;2023-04-15T01:37:07;8.65;;;3.50;;
24873;SDS011;12945;42.648;23.370;2023-04-15T01:39:32;8.82;;;3.30;;
24873;SDS011;12945;42.648;23.370;2023-04-15T01:41:58;8.38;;;3.30;;
24873;SDS011;12945;42.648;23.370;2023-04-15T01:44:23;9.15;;;3.50;;
24873;SDS011;12945;42.648;23.370;2023-04-15T01:46:49;7.55;;;3.60;;
24873;SDS011;12945;42.648;23.370;2023-04-15T01:49:14;6.82;;;3.72;;
24873;SDS011;12945;42.648;23.370;2023-04-15T01:51:39;7.63;;;3.17;;
24873;SDS011;12945;42.648;23.370;2023-04-15T01:54:05;10.07;;;3.80;;
24873;SDS011;12945;42.648;23.370;2023-04-15T01:56:30;12.48;;;3.67;;
24873;SDS011;12945;42.648;23.370;2023-04-15T01:58:55;7.65;;;3.53;;
24873;SDS011;12945;42.648;23.370;2023-04-15T02:01:21;6.25;;;3.47;;
24873;SDS011;12945;42.648;23.370;2023-04-15T02:03:46;11.00;;;3.58;;
24873;SDS011;12945;42.648;23.370;2023-04-15T02:06:11;7.90;;;3.60;;
24873;SDS011;12945;42.648;23.370;2023-04-15T02:08:37;7.85;;;3.47;;
24873;SDS011;12945;42.648;23.370;2023-04-15T02:11:02;9.02;;;3.67;;
24873;SDS011;12945;42.648;23.370;2023-04-15T02:13:28;9.50;;;3.58;;
24873;SDS011;12945;42.648;23.370;2023-04-15T02:15:53;5.70;;;3.30;;
24873;SDS011;12945;42.648;23.370;2023-04-15T02:18:19;6.88;;;3.50;;
24873;SDS011;12945;42.648;23.370;2023-04-15T02:20:45;10.48;;;3.88;;
24873;SDS011;12945;42.648;23.370;2023-04-15T02:23:11;8.10;;;3.50;;
24873;SDS011;12945;42.648;23.370;2023-04-15T02:25:36;10.40;;;3.90;;
24873;SDS011;12945;42.648;23.370;2023-04-15T02:28:03;5.28;;;3.50;;
24873;SDS011;12945;42.648;23.370;2023-04-15T02:30:28;10.57;;;3.67;;
24873;SDS011;12945;42.648;23.370;2023-04-15T02:32:53;9.82;;;3.80;;
24873;SDS011;12945;42.648;23.370;2023-04-15T02:35:19;5.65;;;3.65;;
24873;SDS011;12945;42.648;23.370;2023-04-15T02:37:45;9.55;;;3.67;;
24873;SDS011;12945;42.648;23.370;2023-04-15T02:40:12;6.18;;;3.67;;
24873;SDS011;12945;42.648;23.370;2023-04-15T02:42:38;9.13;;;4.25;;
24873;SDS011;12945;42.648;23.370;2023-04-15T02:45:04;8.52;;;4.13;;
24873;SDS011;12945;42.648;23.370;2023-04-15T02:47:30;5.78;;;3.40;;
24873;SDS011;12945;42.648;23.370;2023-04-15T02:49:56;7.95;;;3.80;;
24873;SDS011;12945;42.648;23.370;2023-04-15T02:52:23;9.60;;;4.25;;
24873;SDS011;12945;42.648;23.370;2023-04-15T02:54:48;8.90;;;4.63;;
24873;SDS011;12945;42.648;23.370;2023-04-15T02:57:14;8.82;;;4.68;;
24873;SDS011;12945;42.648;23.370;2023-04-15T02:59:39;10.52;;;4.82;;
24873;SDS011;12945;42.648;23.370;2023-04-15T03:02:04;13.65;;;4.57;;
24873;SDS011;12945;42.648;23.370;2023-04-15T03:04:31;9.73;;;4.50;;
24873;SDS011;12945;42.648;23.370;2023-04-15T03:06:57;8.88;;;4.28;;
24873;SDS011;12945;42.648;23.370;2023-04-15T03:09:22;8.60;;;4.45;;
24873;SDS011;12945;42.648;23.370;2023-04-15T03:11:48;9.32;;;4.00;;
24873;SDS011;12945;42.648;23.370;2023-04-15T03:14:15;14.38;;;4.10;;
24873;SDS011;12945;42.648;23.370;2023-04-15T03:16:41;6.88;;;3.72;;
24873;SDS011;12945;42.648;23.370;2023-04-15T03:19:06;9.88;;;3.72;;
24873;SDS011;12945;42.648;23.370;2023-04-15T03:21:31;8.02;;;3.70;;
24873;SDS011;12945;42.648;23.370;2023-04-15T03:23:57;8.02;;;4.20;;
24873;SDS011;12945;42.648;23.370;2023-04-15T03:26:25;7.85;;;4.25;;
24873;SDS011;12945;42.648;23.370;2023-04-15T03:28:51;9.32;;;3.78;;
24873;SDS011;12945;42.648;23.370;2023-04-15T03:31:16;8.00;;;4.18;;
24873;SDS011;12945;42.648;23.370;2023-04-15T03:33:42;10.18;;;3.30;;
24873;SDS011;12945;42.648;23.370;2023-04-15T03:36:07;7.45;;;4.00;;
24873;SDS011;12945;42.648;23.370;2023-04-15T03:38:32;9.32;;;3.95;;
24873;SDS011;12945;42.648;23.370;2023-04-15T03:40:57;7.47;;;3.80;;
24873;SDS011;12945;42.648;23.370;2023-04-15T03:43:23;9.55;;;3.95;;
24873;SDS011;12945;42.648;23.370;2023-04-15T03:45:48;9.27;;;3.95;;
24873;SDS011;12945;42.648;23.370;2023-04-15T03:48:13;6.72;;;4.13;;
24873;SDS011;12945;42.648;23.370;2023-04-15T03:50:39;7.03;;;4.38;;
24873;SDS011;12945;42.648;23.370;2023-04-15T03:53:04;8.65;;;4.45;;
24873;SDS011;12945;42.648;23.370;2023-04-15T03:55:30;7.50;;;4.38;;
24873;SDS011;12945;42.648;23.370;2023-04-15T03:57:55;8.50;;;4.38;;
24873;SDS011;12945;42.648;23.370;2023-04-15T04:00:21;9.20;;;4.20;;
24873;SDS011;12945;42.648;23.370;2023-04-15T04:02:46;7.57;;;4.68;;
24873;SDS011;12945;42.648;23.370;2023-04-15T04:05:11;8.15;;;4.60;;
24873;SDS011;12945;42.648;23.370;2023-04-15T04:07:37;10.15;;;4.35;;
24873;SDS011;12945;42.648;23.370;2023-04-15T04:10:03;7.43;;;4.55;;
24873;SDS011;12945;42.648;23.370;2023-04-15T04:12:28;9.00;;;4.95;;
24873;SDS011;12945;42.648;23.370;2023-04-15T04:14:53;8.60;;;4.72;;
24873;SDS011;12945;42.648;23.370;2023-04-15T04:17:19;8.35;;;4.20;;
24873;SDS011;12945;42.648;23.370;2023-04-15T04:19:44;10.27;;;4.68;;
24873;SDS011;12945;42.648;23.370;2023-04-15T04:22:10;8.38;;;5.03;;
24873;SDS011;12945;42.648;23.370;2023-04-15T04:24:37;10.25;;;5.63;;
24873;SDS011;12945;42.648;23.370;2023-04-15T04:27:02;8.20;;;4.97;;
24873;SDS011;12945;42.648;23.370;2023-04-15T04:29:27;14.13;;;5.43;;
24873;SDS011;12945;42.648;23.370;2023-04-15T04:31:53;9.63;;;5.88;;
24873;SDS011;12945;42.648;23.370;2023-04-15T04:34:18;11.68;;;5.72;;
24873;SDS011;12945;42.648;23.370;2023-04-15T04:36:43;11.23;;;5.97;;
24873;SDS011;12945;42.648;23.370;2023-04-15T04:39:09;10.90;;;5.82;;
24873;SDS011;12945;42.648;23.370;2023-04-15T04:41:34;12.50;;;6.13;;
24873;SDS011;12945;42.648;23.370;2023-04-15T04:44:00;13.70;;;6.78;;
24873;SDS011;12945;42.648;23.370;2023-04-15T04:46:25;13.50;;;6.10;;
24873;SDS011;12945;42.648;23.370;2023-04-15T04:48:51;12.80;;;7.15;;
24873;SDS011;12945;42.648;23.370;2023-04-15T04:51:16;13.77;;;6.80;;
24873;SDS011;12945;42.648;23.370;2023-04-15T04:53:42;19.00;;;7.72;;
24873;SDS011;12945;42.648;23.370;2023-04-15T04:56:07;15.25;;;8.50;;
24873;SDS011;12945;42.648;23.370;2023-04-15T04:58:32;16.67;;;8.45;;
24873;SDS011;12945;42.648;23.370;2023-04-15T05:00:58;16.27;;;8.30;;
24873;SDS011;12945;42.648;23.370;2023-04-15T05:03:23;17.63;;;8.65;;
24873;SDS011;12945;42.648;23.370;2023-04-15T05:05:48;16.85;;;8.60;;
24873;SDS011;12945;42.648;23.370;2023-04-15T05:08:14;14.98;;;8.50;;
24873;SDS011;12945;42.648;23.370;2023-04-15T05:10:40;16.27;;;8.45;;
24873;SDS011;12945;42.648;23.370;2023-04-15T05:13:05;17.45;;;8.90;;
24873;SDS011;12945;42.648;23.370;2023-04-15T05:15:31;15.65;;;8.85;;
24873;SDS011;12945;42.648;23.370;2023-04-15T05:17:57;17.98;;;9.30;;
24873;SDS011;12945;42.648;23.370;2023-04-15T05:20:22;16.15;;;8.23;;
24873;SDS011;12945;42.648;23.370;2023-04-15T05:22:47;12.73;;;7.78;;
24873;SDS011;12945;42.648;23.370;2023-04-15T05:25:12;16.65;;;7.95;;
24873;SDS011;12945;42.648;23.370;2023-04-15T05:27:38;13.23;;;7.55;;
24873;SDS011;12945;42.648;23.370;2023-04-15T05:30:03;17.70;;;8.13;;
24873;SDS011;12945;42.648;23.370;2023-04-15T05:32:29;14.45;;;7.00;;
24873;SDS011;12945;42.648;23.370;2023-04-15T05:34:55;12.48;;;6.60;;
24873;SDS011;12945;42.648;23.370;2023-04-15T05:37:20;10.75;;;6.10;;
24873;SDS011;12945;42.648;23.370;2023-04-15T05:39:46;11.18;;;5.80;;
24873;SDS011;12945;42.648;23.370;2023-04-15T05:42:12;14.68;;;6.72;;
24873;SDS011;12945;42.648;23.370;2023-04-15T05:44:37;10.35;;;5.82;;
24873;SDS011;12945;42.648;23.370;2023-04-15T05:47:02;12.25;;;6.25;;
24873;SDS011;12945;42.648;23.370;2023-04-15T05:49:28;12.15;;;6.82;;
24873;SDS011;12945;42.648;23.370;2023-04-15T05:51:54;12.57;;;6.85;;
24873;SDS011;12945;42.648;23.370;2023-04-15T05:54:19;9.45;;;6.32;;
24873;SDS011;12945;42.648;23.370;2023-04-15T05:56:47;10.10;;;6.45;;
24873;SDS011;12945;42.648;23.370;2023-04-15T05:59:12;10.10;;;6.07;;
24873;SDS011;12945;42.648;23.370;2023-04-15T06:01:37;12.63;;;6.28;;
24873;SDS011;12945;42.648;23.370;2023-04-15T06:04:03;11.32;;;6.15;;
24873;SDS011;12945;42.648;23.370;2023-04-15T06:06:28;14.43;;;6.57;;
24873;SDS011;12945;42.648;23.370;2023-04-15T06:08:53;9.00;;;5.20;;
24873;SDS011;12945;42.648;23.370;2023-04-15T06:11:20;7.32;;;4.25;;
24873;SDS011;12945;42.648;23.370;2023-04-15T06:13:46;8.88;;;3.90;;
24873;SDS011;12945;42.648;23.370;2023-04-15T06:16:11;10.55;;;3.55;;
24873;SDS011;12945;42.648;23.370;2023-04-15T06:18:37;8.00;;;3.45;;
24873;SDS011;12945;42.648;23.370;2023-04-15T06:21:02;7.97;;;3.83;;
24873;SDS011;12945;42.648;23.370;2023-04-15T06:23:28;14.48;;;4.07;;
24873;SDS011;12945;42.648;23.370;2023-04-15T06:25:54;8.18;;;3.95;;
24873;SDS011;12945;42.648;23.370;2023-04-15T06:28:19;16.98;;;4.40;;
24873;SDS011;12945;42.648;23.370;2023-04-15T06:30:44;10.27;;;3.95;;
24873;SDS011;12945;42.648;23.370;2023-04-15T06:33:09;11.52;;;4.88;;
24873;SDS011;12945;42.648;23.370;2023-04-15T06:35:35;14.02;;;4.57;;
24873;SDS011;12945;42.648;23.370;2023-04-15T06:38:00;10.85;;;4.55;;
24873;SDS011;12945;42.648;23.370;2023-04-15T06:40:26;8.43;;;4.22;;
24873;SDS011;12945;42.648;23.370;2023-04-15T06:42:51;9.02;;;4.60;;
24873;SDS011;12945;42.648;23.370;2023-04-15T06:45:17;8.88;;;4.53;;
24873;SDS011;12945;42.648;23.370;2023-04-15T06:47:42;10.18;;;4.78;;
24873;SDS011;12945;42.648;23.370;2023-04-15T06:50:07;9.55;;;4.80;;
24873;SDS011;12945;42.648;23.370;2023-04-15T06:52:33;14.38;;;4.88;;
24873;SDS011;12945;42.648;23.370;2023-04-15T06:54:58;14.05;;;5.45;;
24873;SDS011;12945;42.648;23.370;2023-04-15T06:57:24;9.80;;;4.90;;
24873;SDS011;12945;42.648;23.370;2023-04-15T06:59:49;11.73;;;5.40;;
24873;SDS011;12945;42.648;23.370;2023-04-15T07:02:16;16.00;;;4.80;;
24873;SDS011;12945;42.648;23.370;2023-04-15T07:04:42;9.13;;;4.57;;
24873;SDS011;12945;42.648;23.370;2023-04-15T07:07:07;9.20;;;4.18;;
24873;SDS011;12945;42.648;23.370;2023-04-15T07:09:33;9.48;;;4.25;;
24873;SDS011;12945;42.648;23.370;2023-04-15T07:11:58;10.73;;;4.50;;
24873;SDS011;12945;42.648;23.370;2023-04-15T07:14:24;10.25;;;4.72;;
24873;SDS011;12945;42.648;23.370;2023-04-15T07:16:49;11.35;;;4.43;;
24873;SDS011;12945;42.648;23.370;2023-04-15T07:19:14;14.38;;;4.25;;
24873;SDS011;12945;42.648;23.370;2023-04-15T07:21:40;8.25;;;4.03;;
24873;SDS011;12945;42.648;23.370;2023-04-15T07:24:06;15.38;;;4.47;;
24873;SDS011;12945;42.648;23.370;2023-04-15T07:26:31;9.93;;;3.90;;
24873;SDS011;12945;42.648;23.370;2023-04-15T07:28:57;5.82;;;3.67;;
24873;SDS011;12945;42.648;23.370;2023-04-15T07:31:22;7.72;;;3.65;;
24873;SDS011;12945;42.648;23.370;2023-04-15T07:33:47;11.05;;;3.83;;
24873;SDS011;12945;42.648;23.370;2023-04-15T07:36:12;9.00;;;3.63;;
24873;SDS011;12945;42.648;23.370;2023-04-15T07:38:38;7.90;;;3.95;;
24873;SDS011;12945;42.648;23.370;2023-04-15T07:41:03;10.95;;;3.60;;
24873;SDS011;12945;42.648;23.370;2023-04-15T07:43:29;10.18;;;3.67;;
24873;SDS011;12945;42.648;23.370;2023-04-15T07:45:54;8.70;;;3.78;;
24873;SDS011;12945;42.648;23.370;2023-04-15T07:48:19;14.32;;;3.80;;
24873;SDS011;12945;42.648;23.370;2023-04-15T07:50:45;9.73;;;3.55;;
24873;SDS011;12945;42.648;23.370;2023-04-15T07:53:10;9.85;;;3.67;;
24873;SDS011;12945;42.648;23.370;2023-04-15T07:55:35;8.75;;;3.67;;
24873;SDS011;12945;42.648;23.370;2023-04-15T07:58:01;7.28;;;3.50;;
24873;SDS011;12945;42.648;23.370;2023-04-15T08:00:26;8.25;;;3.28;;
24873;SDS011;12945;42.648;23.370;2023-04-15T08:02:52;8.07;;;3.80;;
24873;SDS011;12945;42.648;23.370;2023-04-15T08:05:18;12.38;;;3.58;;
24873;SDS011;12945;42.648;23.370;2023-04-15T08:07:43;7.88;;;3.67;;
24873;SDS011;12945;42.648;23.370;2023-04-15T08:10:09;12.55;;;3.70;;
24873;SDS011;12945;42.648;23.370;2023-04-15T08:12:34;8.43;;;3.63;;
24873;SDS011;12945;42.648;23.370;2023-04-15T08:15:01;5.65;;;3.45;;
24873;SDS011;12945;42.648;23.370;2023-04-15T08:17:26;8.95;;;3.97;;
24873;SDS011;12945;42.648;23.370;2023-04-15T08:19:52;5.22;;;3.38;;
24873;SDS011;12945;42.648;23.370;2023-04-15T08:22:18;6.50;;;3.60;;
24873;SDS011;12945;42.648;23.370;2023-04-15T08:24:43;13.73;;;3.60;;
24873;SDS011;12945;42.648;23.370;2023-04-15T08:27:09;10.80;;;3.20;;
24873;SDS011;12945;42.648;23.370;2023-04-15T08:29:34;7.80;;;2.95;;
24873;SDS011;12945;42.648;23.370;2023-04-15T08:32:00;7.90;;;2.80;;
24873;SDS011;12945;42.648;23.370;2023-04-15T08:34:28;4.97;;;2.58;;
24873;SDS011;12945;42.648;23.370;2023-04-15T08:36:53;5.15;;;2.58;;
24873;SDS011;12945;42.648;23.370;2023-04-15T08:39:19;7.55;;;3.58;;
24873;SDS011;12945;42.648;23.370;2023-04-15T08:41:45;6.28;;;2.63;;
24873;SDS011;12945;42.648;23.370;2023-04-15T08:44:14;7.60;;;2.63;;
24873;SDS011;12945;42.648;23.370;2023-04-15T08:46:39;4.97;;;2.83;;
24873;SDS011;12945;42.648;23.370;2023-04-15T08:49:07;4.95;;;2.70;;
24873;SDS011;12945;42.648;23.370;2023-04-15T08:51:33;7.05;;;2.03;;
24873;SDS011;12945;42.648;23.370;2023-04-15T08:53:59;9.10;;;2.67;;
24873;SDS011;12945;42.648;23.370;2023-04-15T08:56:25;7.07;;;2.17;;
24873;SDS011;12945;42.648;23.370;2023-04-15T08:58:52;7.40;;;2.47;;
24873;SDS011;12945;42.648;23.370;2023-04-15T09:01:17;8.73;;;2.40;;
24873;SDS011;12945;42.648;23.370;2023-04-15T09:03:42;8.07;;;2.58;;
24873;SDS011;12945;42.648;23.370;2023-04-15T09:06:08;7.63;;;2.95;;
24873;SDS011;12945;42.648;23.370;2023-04-15T09:08:33;4.20;;;2.42;;
24873;SDS011;12945;42.648;23.370;2023-04-15T09:11:00;6.72;;;2.47;;
24873;SDS011;12945;42.648;23.370;2023-04-15T09:13:25;11.85;;;2.53;;
24873;SDS011;12945;42.648;23.370;2023-04-15T09:15:51;4.63;;;2.10;;
24873;SDS011;12945;42.648;23.370;2023-04-15T09:18:30;9.20;;;1.90;;
24873;SDS011;12945;42.648;23.370;2023-04-15T09:20:56;3.80;;;1.70;;
24873;SDS011;12945;42.648;23.370;2023-04-15T09:23:29;4.55;;;1.83;;
24873;SDS011;12945;42.648;23.370;2023-04-15T09:25:56;7.35;;;1.92;;
24873;SDS011;12945;42.648;23.370;2023-04-15T09:28:24;4.10;;;1.70;;
24873;SDS011;12945;42.648;23.370;2023-04-15T09:31:10;4.07;;;1.73;;
24873;SDS011;12945;42.648;23.370;2023-04-15T09:33:36;3.58;;;1.52;;
24873;SDS011;12945;42.648;23.370;2023-04-15T09:36:17;4.93;;;1.60;;
24873;SDS011;12945;42.648;23.370;2023-04-15T09:38:56;5.43;;;1.88;;
24873;SDS011;12945;42.648;23.370;2023-04-15T09:41:21;3.45;;;1.67;;
24873;SDS011;12945;42.648;23.370;2023-04-15T09:43:47;3.50;;;1.40;;
24873;SDS011;12945;42.648;23.370;2023-04-15T09:46:12;2.90;;;1.10;;
24873;SDS011;12945;42.648;23.370;2023-04-15T09:48:37;9.18;;;1.90;;
24873;SDS011;12945;42.648;23.370;2023-04-15T09:51:03;6.75;;;1.50;;
24873;SDS011;12945;42.648;23.370;2023-04-15T09:53:28;5.00;;;1.85;;
24873;SDS011;12945;42.648;23.370;2023-04-15T09:55:55;4.72;;;1.42;;
24873;SDS011;12945;42.648;23.370;2023-04-15T09:58:24;4.18;;;1.60;;
24873;SDS011;12945;42.648;23.370;2023-04-15T10:00:50;5.72;;;2.22;;
24873;SDS011;12945;42.648;23.370;2023-04-15T10:03:19;3.88;;;1.80;;
24873;SDS011;12945;42.648;23.370;2023-04-15T10:05:46;5.97;;;1.63;;
24873;SDS011;12945;42.648;23.370;2023-04-15T10:08:12;5.18;;;1.98;;
24873;SDS011;12945;42.648;23.370;2023-04-15T10:10:37;3.70;;;1.52;;
24873;SDS011;12945;42.648;23.370;2023-04-15T10:13:03;4.55;;;1.98;;
24873;SDS011;12945;42.648;23.370;2023-04-15T10:15:29;3.50;;;1.52;;
24873;SDS011;12945;42.648;23.370;2023-04-15T10:17:55;3.78;;;1.80;;
24873;SDS011;12945;42.648;23.370;2023-04-15T10:20:22;3.88;;;1.20;;
24873;SDS011;12945;42.648;23.370;2023-04-15T10:22:48;3.33;;;1.38;;
24873;SDS011;12945;42.648;23.370;2023-04-15T10:25:14;3.75;;;1.10;;
24873;SDS011;12945;42.648;23.370;2023-04-15T10:27:41;3.60;;;1.20;;
24873;SDS011;12945;42.648;23.370;2023-04-15T10:30:06;3.40;;;1.15;;
24873;SDS011;12945;42.648;23.370;2023-04-15T10:32:33;3.20;;;1.60;;
24873;SDS011;12945;42.648;23.370;2023-04-15T10:34:58;3.70;;;1.00;;
24873;SDS011;12945;42.648;23.370;2023-04-15T10:37:36;4.82;;;1.83;;
24873;SDS011;12945;42.648;23.370;2023-04-15T10:42:46;4.32;;;1.25;;
24873;SDS011;12945;42.648;23.370;2023-04-15T10:45:15;3.75;;;1.40;;
24873;SDS011;12945;42.648;23.370;2023-04-15T10:47:40;5.15;;;1.70;;
24873;SDS011;12945;42.648;23.370;2023-04-15T10:50:07;8.43;;;1.60;;
24873;SDS011;12945;42.648;23.370;2023-04-15T10:52:33;3.25;;;1.20;;
24873;SDS011;12945;42.648;23.370;2023-04-15T10:55:15;4.05;;;1.50;;
24873;SDS011;12945;42.648;23.370;2023-04-15T10:57:42;4.60;;;1.60;;
24873;SDS011;12945;42.648;23.370;2023-04-15T11:00:09;5.20;;;1.65;;
24873;SDS011;12945;42.648;23.370;2023-04-15T11:05:06;4.10;;;1.50;;
24873;SDS011;12945;42.648;23.370;2023-04-15T11:12:51;6.15;;;1.40;;
24873;SDS011;12945;42.648;23.370;2023-04-15T11:18:17;3.30;;;1.60;;
24873;SDS011;12945;42.648;23.370;2023-04-15T11:20:44;3.78;;;1.35;;
24873;SDS011;12945;42.648;23.370;2023-04-15T11:23:10;6.65;;;1.52;;
24873;SDS011;12945;42.648;23.370;2023-04-15T11:25:35;4.10;;;1.58;;
24873;SDS011;12945;42.648;23.370;2023-04-15T11:28:04;5.63;;;1.60;;
24873;SDS011;12945;42.648;23.370;2023-04-15T11:30:33;5.18;;;1.38;;
24873;SDS011;12945;42.648;23.370;2023-04-15T11:32:59;4.50;;;1.35;;
24873;SDS011;12945;42.648;23.370;2023-04-15T11:35:25;5.90;;;1.23;;
24873;SDS011;12945;42.648;23.370;2023-04-15T11:37:51;4.57;;;1.20;;
24873;SDS011;12945;42.648;23.370;2023-04-15T11:40:21;2.97;;;1.42;;
24873;SDS011;12945;42.648;23.370;2023-04-15T11:42:46;5.00;;;1.77;;
24873;SDS011;12945;42.648;23.370;2023-04-15T11:45:27;3.58;;;1.30;;
24873;SDS011;12945;42.648;23.370;2023-04-15T11:47:53;3.03;;;1.13;;
24873;SDS011;12945;42.648;23.370;2023-04-15T11:50:18;4.22;;;1.35;;
24873;SDS011;12945;42.648;23.370;2023-04-15T11:53:00;4.70;;;1.60;;
24873;SDS011;12945;42.648;23.370;2023-04-15T11:55:26;4.15;;;1.42;;
24873;SDS011;12945;42.648;23.370;2023-04-15T12:00:36;2.47;;;0.70;;
24873;SDS011;12945;42.648;23.370;2023-04-15T12:08:47;4.70;;;1.15;;
24873;SDS011;12945;42.648;23.370;2023-04-15T12:11:13;3.38;;;1.60;;
24873;SDS011;12945;42.648;23.370;2023-04-15T12:13:42;3.00;;;1.40;;
24873;SDS011;12945;42.648;23.370;2023-04-15T12:16:07;7.63;;;1.38;;
24873;SDS011;12945;42.648;23.370;2023-04-15T12:18:33;2.75;;;1.23;;
24873;SDS011;12945;42.648;23.370;2023-04-15T12:21:03;3.95;;;1.23;;
24873;SDS011;12945;42.648;23.370;2023-04-15T12:23:29;1.92;;;1.10;;
24873;SDS011;12945;42.648;23.370;2023-04-15T12:25:54;6.25;;;1.23;;
24873;SDS011;12945;42.648;23.370;2023-04-15T12:28:20;2.55;;;1.00;;
24873;SDS011;12945;42.648;23.370;2023-04-15T12:30:49;2.83;;;1.10;;
24873;SDS011;12945;42.648;23.370;2023-04-15T12:33:15;1.87;;;0.90;;
24873;SDS011;12945;42.648;23.370;2023-04-15T12:35:40;2.20;;;1.02;;
24873;SDS011;12945;42.648;23.370;2023-04-15T12:38:06;2.95;;;1.10;;
24873;SDS011;12945;42.648;23.370;2023-04-15T12:40:33;2.80;;;1.00;;
24873;SDS011;12945;42.648;23.370;2023-04-15T12:42:58;2.92;;;1.10;;
24873;SDS011;12945;42.648;23.370;2023-04-15T12:45:23;3.75;;;1.15;;
24873;SDS011;12945;42.648;23.370;2023-04-15T12:47:49;4.70;;;1.17;;
24873;SDS011;12945;42.648;23.370;2023-04-15T12:50:14;2.40;;;0.95;;
24873;SDS011;12945;42.648;23.370;2023-04-15T12:52:41;4.43;;;1.13;;
24873;SDS011;12945;42.648;23.370;2023-04-15T12:55:06;2.45;;;0.90;;
24873;SDS011;12945;42.648;23.370;2023-04-15T12:57:32;2.65;;;1.15;;
24873;SDS011;12945;42.648;23.370;2023-04-15T12:59:57;4.47;;;0.98;;
24873;SDS011;12945;42.648;23.370;2023-04-15T13:02:23;3.40;;;1.00;;
24873;SDS011;12945;42.648;23.370;2023-04-15T13:04:49;4.35;;;0.90;;
24873;SDS011;12945;42.648;23.370;2023-04-15T13:07:14;1.88;;;1.00;;
24873;SDS011;12945;42.648;23.370;2023-04-15T13:09:40;3.22;;;0.85;;
24873;SDS011;12945;42.648;23.370;2023-04-15T13:12:05;2.42;;;0.90;;
24873;SDS011;12945;42.648;23.370;2023-04-15T13:14:30;3.05;;;0.80;;
24873;SDS011;12945;42.648;23.370;2023-04-15T13:16:57;3.63;;;1.20;;
24873;SDS011;12945;42.648;23.370;2023-04-15T13:19:23;4.13;;;0.98;;
24873;SDS011;12945;42.648;23.370;2023-04-15T13:21:48;2.78;;;1.02;;
24873;SDS011;12945;42.648;23.370;2023-04-15T13:24:13;2.67;;;0.80;;
24873;SDS011;12945;42.648;23.370;2023-04-15T13:26:38;5.95;;;1.10;;
24873;SDS011;12945;42.648;23.370;2023-04-15T13:29:04;2.60;;;0.85;;
24873;SDS011;12945;42.648;23.370;2023-04-15T13:31:29;1.95;;;0.90;;
24873;SDS011;12945;42.648;23.370;2023-04-15T13:33:55;2.17;;;0.68;;
24873;SDS011;12945;42.648;23.370;2023-04-15T13:36:21;2.00;;;0.82;;
24873;SDS011;12945;42.648;23.370;2023-04-15T13:38:46;1.95;;;0.80;;
24873;SDS011;12945;42.648;23.370;2023-04-15T13:41:11;4.57;;;0.90;;
24873;SDS011;12945;42.648;23.370;2023-04-15T13:43:37;2.30;;;0.77;;
24873;SDS011;12945;42.648;23.370;2023-04-15T13:46:02;2.03;;;0.80;;
24873;SDS011;12945;42.648;23.370;2023-04-15T13:48:27;4.30;;;1.00;;
24873;SDS011;12945;42.648;23.370;2023-04-15T13:50:53;3.65;;;1.00;;
24873;SDS011;12945;42.648;23.370;2023-04-15T13:53:19;3.10;;;1.08;;
24873;SDS011;12945;42.648;23.370;2023-04-15T13:55:44;4.35;;;0.98;;
24873;SDS011;12945;42.648;23.370;2023-04-15T13:58:09;3.38;;;0.80;;
24873;SDS011;12945;42.648;23.370;2023-04-15T14:00:35;4.55;;;1.00;;
24873;SDS011;12945;42.648;23.370;2023-04-15T14:03:00;2.22;;;1.10;;
24873;SDS011;12945;42.648;23.370;2023-04-15T14:05:26;4.88;;;1.30;;
24873;SDS011;12945;42.648;23.370;2023-04-15T14:07:51;3.47;;;0.90;;
24873;SDS011;12945;42.648;23.370;2023-04-15T14:10:17;2.55;;;0.90;;
24873;SDS011;12945;42.648;23.370;2023-04-15T14:12:42;2.17;;;0.80;;
24873;SDS011;12945;42.648;23.370;2023-04-15T14:15:07;3.78;;;0.70;;
24873;SDS011;12945;42.648;23.370;2023-04-15T14:17:33;3.92;;;0.85;;
24873;SDS011;12945;42.648;23.370;2023-04-15T14:19:58;1.48;;;0.90;;
24873;SDS011;12945;42.648;23.370;2023-04-15T14:22:24;2.58;;;0.90;;
24873;SDS011;12945;42.648;23.370;2023-04-15T14:24:49;2.22;;;1.10;;
24873;SDS011;12945;42.648;23.370;2023-04-15T14:27:17;2.53;;;0.80;;
24873;SDS011;12945;42.648;23.370;2023-04-15T14:29:43;3.03;;;0.98;;
24873;SDS011;12945;42.648;23.370;2023-04-15T14:32:08;3.22;;;0.90;;
24873;SDS011;12945;42.648;23.370;2023-04-15T14:34:33;5.03;;;1.02;;
24873;SDS011;12945;42.648;23.370;2023-04-15T14:36:58;2.42;;;0.90;;
24873;SDS011;12945;42.648;23.370;2023-04-15T14:39:24;2.60;;;0.80;;
24873;SDS011;12945;42.648;23.370;2023-04-15T14:41:49;1.58;;;0.80;;
24873;SDS011;12945;42.648;23.370;2023-04-15T14:44:15;3.20;;;1.05;;
24873;SDS011;12945;42.648;23.370;2023-04-15T14:46:40;3.90;;;0.82;;